createdAt,value
2022-11-20T00:00:56.469Z,7.60
2022-11-20T00:03:24.842Z,4.00
2022-11-20T00:05:52.906Z,10.00
2022-11-20T00:08:21.496Z,9.00
2022-11-20T00:10:51.010Z,8.20
2022-11-20T00:13:19.104Z,10.00
2022-11-20T00:15:47.232Z,7.80
2022-11-20T00:18:15.495Z,6.20
2022-11-20T00:20:43.575Z,8.20
2022-11-20T00:23:11.853Z,12.80
2022-11-20T00:25:39.911Z,12.40
2022-11-20T00:28:09.387Z,12.00
2022-11-20T00:30:37.394Z,12.20
2022-11-20T00:33:05.422Z,13.00
2022-11-20T00:35:33.474Z,12.00
2022-11-20T00:38:01.632Z,9.00
2022-11-20T00:40:29.843Z,9.60
2022-11-20T00:42:57.904Z,10.40
2022-11-20T00:45:27.375Z,10.40
2022-11-20T00:47:55.389Z,10.00
2022-11-20T00:50:23.401Z,10.00
2022-11-20T00:52:51.400Z,7.80
2022-11-20T00:55:19.448Z,9.40
2022-11-20T00:57:47.483Z,6.80
2022-11-20T01:00:15.594Z,10.80
2022-11-20T01:02:45.210Z,7.00
2022-11-20T01:05:13.236Z,7.80
2022-11-20T01:07:41.292Z,7.00
2022-11-20T01:10:09.775Z,9.40
2022-11-20T01:12:37.843Z,11.00
2022-11-20T01:15:06.229Z,1.00
2022-11-20T01:17:34.337Z,5.20
2022-11-20T01:20:03.752Z,9.00
2022-11-20T01:22:31.799Z,11.60
2022-11-20T01:24:59.987Z,8.60
2022-11-20T01:27:28.076Z,3.00
2022-11-20T01:30:00.923Z,7.00
2022-11-20T01:32:31.789Z,5.20
2022-11-20T01:34:59.990Z,8.60
2022-11-20T01:37:29.466Z,7.00
2022-11-20T01:39:57.592Z,6.40
2022-11-20T01:42:43.023Z,6.60
2022-11-20T01:45:25.999Z,6.40
2022-11-20T01:47:54.044Z,9.00
2022-11-20T01:50:25.022Z,8.80
2022-11-20T01:52:57.801Z,10.00
2022-11-20T01:55:28.367Z,11.00
2022-11-20T01:57:56.855Z,5.20
2022-11-20T02:00:25.236Z,6.00
2022-11-20T02:02:55.864Z,7.40
2022-11-20T02:05:26.228Z,9.60
2022-11-20T02:07:56.698Z,11.00
2022-11-20T02:10:25.040Z,8.60
2022-11-20T02:13:10.791Z,10.00
2022-11-20T02:15:39.328Z,9.60
2022-11-20T02:18:07.962Z,3.20
2022-11-20T02:20:36.069Z,9.40
2022-11-20T02:23:07.223Z,7.00
2022-11-20T02:25:38.920Z,3.20
2022-11-20T02:28:07.303Z,3.00
2022-11-20T02:30:35.418Z,9.60
2022-11-20T02:33:03.503Z,7.80
2022-11-20T02:35:47.874Z,9.20
2022-11-20T02:38:16.799Z,7.00
2022-11-20T02:40:47.176Z,6.60
2022-11-20T02:43:18.002Z,3.00
2022-11-20T02:45:46.307Z,6.20
2022-11-20T02:48:14.473Z,8.60
2022-11-20T02:50:42.798Z,4.80
2022-11-20T02:53:10.840Z,6.00
2022-11-20T02:55:38.994Z,5.20
2022-11-20T02:58:08.510Z,9.00
2022-11-20T03:00:36.682Z,9.00
2022-11-20T03:03:04.971Z,9.00
2022-11-20T03:05:33.010Z,8.60
2022-11-20T03:08:01.057Z,6.80
2022-11-20T03:10:29.215Z,7.00
2022-11-20T03:12:57.610Z,6.60
2022-11-20T03:15:27.337Z,9.00
2022-11-20T03:17:56.875Z,10.00
2022-11-20T03:20:25.295Z,6.00
2022-11-20T03:22:53.374Z,9.00
2022-11-20T03:25:21.528Z,10.00
2022-11-20T03:27:49.646Z,11.20
2022-11-20T03:30:17.713Z,6.60
2022-11-20T03:32:47.259Z,4.00
2022-11-20T03:35:15.417Z,6.80
2022-11-20T03:37:43.452Z,11.60
2022-11-20T03:40:11.976Z,10.20
2022-11-20T03:42:49.042Z,6.60
2022-11-20T03:45:18.166Z,6.00
2022-11-20T03:47:48.186Z,9.60
2022-11-20T03:50:16.419Z,9.00
2022-11-20T03:52:44.676Z,9.40
2022-11-20T03:55:12.727Z,1.00
2022-11-20T03:57:40.964Z,10.00
2022-11-20T04:00:09.512Z,6.00
2022-11-20T04:02:37.570Z,10.00
2022-11-20T04:05:07.654Z,9.40
2022-11-20T04:07:36.248Z,9.00
2022-11-20T04:10:04.898Z,8.60
2022-11-20T04:12:34.338Z,9.40
2022-11-20T04:15:02.459Z,9.40
2022-11-20T04:17:31.904Z,9.20
2022-11-20T04:20:00.002Z,9.20
2022-11-20T04:22:29.529Z,6.00
2022-11-20T04:24:57.609Z,9.60
2022-11-20T04:27:25.917Z,6.20
2022-11-20T04:29:53.961Z,6.20
2022-11-20T04:32:22.174Z,3.00
2022-11-20T04:34:50.351Z,9.20
2022-11-20T04:37:18.478Z,8.20
2022-11-20T04:39:47.912Z,4.80
2022-11-20T04:42:31.290Z,10.40
2022-11-20T04:44:59.487Z,7.00
2022-11-20T04:47:27.744Z,10.00
2022-11-20T04:49:55.868Z,6.00
2022-11-20T04:52:23.969Z,9.00
2022-11-20T04:54:54.486Z,3.00
2022-11-20T04:57:22.563Z,4.80
2022-11-20T04:59:50.578Z,8.20
2022-11-20T05:02:18.799Z,8.60
2022-11-20T05:04:46.833Z,6.60
2022-11-20T05:07:14.958Z,2.20
2022-11-20T05:09:43.145Z,6.60
2022-11-20T05:12:12.634Z,10.20
2022-11-20T05:14:40.717Z,7.40
2022-11-20T05:17:11.796Z,10.00
2022-11-20T05:19:39.857Z,3.20
2022-11-20T05:22:07.888Z,7.00
2022-11-20T05:24:35.931Z,8.60
2022-11-20T05:27:04.188Z,6.80
2022-11-20T05:29:33.650Z,10.00
2022-11-20T05:32:01.880Z,9.20
2022-11-20T05:34:29.966Z,9.00
2022-11-20T05:36:58.293Z,9.40
2022-11-20T05:39:26.540Z,10.00
2022-11-20T05:42:14.701Z,8.20
2022-11-20T05:44:44.155Z,12.00
2022-11-20T05:47:12.303Z,12.00
2022-11-20T05:49:40.555Z,10.80
2022-11-20T05:52:08.618Z,9.00
2022-11-20T05:54:36.755Z,10.00
2022-11-20T05:57:04.899Z,12.00
2022-11-20T05:59:32.979Z,7.40
2022-11-20T06:02:02.543Z,10.40
2022-11-20T06:04:30.857Z,11.20
2022-11-20T06:06:58.971Z,12.80
2022-11-20T06:09:27.118Z,10.20
2022-11-20T06:11:55.318Z,3.20
2022-11-20T06:14:23.395Z,13.40
2022-11-20T06:16:51.470Z,12.60
2022-11-20T06:19:21.137Z,13.40
2022-11-20T06:21:49.999Z,13.00
2022-11-20T06:24:18.110Z,13.40
2022-11-20T06:26:46.608Z,12.20
2022-11-20T06:29:14.668Z,11.80
2022-11-20T06:31:43.625Z,9.80
2022-11-20T06:34:11.932Z,11.60
2022-11-20T06:36:41.428Z,13.80
2022-11-20T06:39:09.460Z,12.40
2022-11-20T06:41:37.559Z,10.40
2022-11-20T06:44:06.248Z,6.60
2022-11-20T06:46:34.427Z,7.80
2022-11-20T06:49:02.666Z,15.20
2022-11-20T06:51:30.751Z,12.80
2022-11-20T06:54:02.000Z,14.60
2022-11-20T06:56:30.254Z,12.00
2022-11-20T06:58:58.307Z,12.00
2022-11-20T07:01:26.447Z,13.00
2022-11-20T07:03:54.887Z,10.00
2022-11-20T07:06:23.169Z,12.00
2022-11-20T07:08:53.353Z,13.00
2022-11-20T07:11:23.025Z,11.40
2022-11-20T07:13:51.475Z,6.80
2022-11-20T07:16:19.697Z,17.20
2022-11-20T07:18:50.824Z,14.80
2022-11-20T07:21:19.579Z,15.00
2022-11-20T07:23:47.739Z,9.00
2022-11-20T07:26:16.102Z,7.00
2022-11-20T07:28:47.702Z,8.60
2022-11-20T07:31:19.119Z,5.60
2022-11-20T07:33:48.075Z,12.60
2022-11-20T07:36:16.337Z,16.40
2022-11-20T07:38:44.485Z,10.00
2022-11-20T07:41:12.840Z,10.00
2022-11-20T07:43:41.723Z,12.20
2022-11-20T07:46:11.569Z,13.00
2022-11-20T07:48:39.834Z,13.00
2022-11-20T07:51:08.470Z,14.60
2022-11-20T07:53:36.610Z,7.00
2022-11-20T07:56:05.306Z,7.00
2022-11-20T07:58:35.584Z,12.20
2022-11-20T08:01:07.185Z,12.00
2022-11-20T08:03:38.808Z,14.20
2022-11-20T08:06:09.249Z,7.00
2022-11-20T08:08:42.386Z,9.00
2022-11-20T08:11:28.425Z,12.40
2022-11-20T08:14:14.948Z,13.00
2022-11-20T08:16:43.928Z,12.60
2022-11-20T08:19:13.824Z,14.60
2022-11-20T08:21:42.010Z,13.00
2022-11-20T08:24:11.999Z,10.00
2022-11-20T08:26:40.805Z,16.00
2022-11-20T08:29:09.040Z,15.40
2022-11-20T08:31:37.442Z,15.80
2022-11-20T08:34:09.452Z,13.00
2022-11-20T08:36:39.525Z,12.20
2022-11-20T08:39:07.741Z,13.80
2022-11-20T08:41:37.925Z,13.00
2022-11-20T08:44:07.870Z,13.00
2022-11-20T08:46:38.028Z,13.60
2022-11-20T08:49:07.170Z,10.00
2022-11-20T08:51:35.399Z,13.40
2022-11-20T08:54:05.834Z,15.60
2022-11-20T08:56:34.097Z,9.40
2022-11-20T08:59:43.788Z,12.80
2022-11-20T09:01:50.428Z,11.50
2022-11-20T09:04:20.001Z,13.50
2022-11-20T09:06:52.073Z,15.00
2022-11-20T09:09:22.142Z,15.20
2022-11-20T09:11:51.084Z,17.60
2022-11-20T09:14:19.270Z,18.00
2022-11-20T09:16:47.630Z,13.40
2022-11-20T09:22:05.095Z,16.80
2022-11-20T09:24:35.445Z,9.80
2022-11-20T09:27:04.389Z,13.40
2022-11-20T09:29:32.685Z,15.20
2022-11-20T09:32:00.869Z,14.60
2022-11-20T09:34:29.005Z,11.60
2022-11-20T09:36:57.922Z,14.20
2022-11-20T09:39:27.543Z,15.40
2022-11-20T09:42:19.541Z,13.80
2022-11-20T09:44:56.409Z,15.20
2022-11-20T09:47:28.858Z,13.00
2022-11-20T09:50:02.685Z,16.80
2022-11-20T09:52:35.110Z,15.20
2022-11-20T09:55:04.383Z,7.00
2022-11-20T09:57:36.943Z,15.20
2022-11-20T10:00:08.510Z,15.80
2022-11-20T10:02:49.835Z,15.20
2022-11-20T10:05:20.645Z,15.00
2022-11-20T10:07:52.432Z,12.60
2022-11-20T10:10:24.033Z,15.80
2022-11-20T10:13:01.478Z,13.40
2022-11-20T10:15:36.467Z,0.00
2022-11-20T10:18:13.982Z,18.00
2022-11-20T10:20:46.373Z,15.40
2022-11-20T10:23:26.290Z,7.00
2022-11-20T10:25:58.611Z,19.40
2022-11-20T10:28:41.879Z,8.60
2022-11-20T10:31:13.645Z,15.40
2022-11-20T10:34:10.413Z,9.60
2022-11-20T10:36:36.054Z,14.60
2022-11-20T10:39:08.517Z,12.00
2022-11-20T10:41:39.454Z,15.00
2022-11-20T10:44:11.959Z,14.60
2022-11-20T10:46:43.273Z,15.60
2022-11-20T10:49:15.382Z,15.00
2022-11-20T10:51:50.623Z,16.00
2022-11-20T10:54:23.086Z,15.60
2022-11-20T10:56:53.265Z,10.80
2022-11-20T10:59:36.883Z,13.00
2022-11-20T11:02:17.222Z,17.20
2022-11-20T11:04:47.815Z,18.40
2022-11-20T11:07:19.231Z,13.80
2022-11-20T11:09:50.281Z,16.00
2022-11-20T11:12:18.920Z,20.60
2022-11-20T11:14:48.037Z,14.00
2022-11-20T11:17:24.711Z,17.80
2022-11-20T11:20:06.903Z,19.40
2022-11-20T11:22:36.227Z,10.80
2022-11-20T11:25:04.577Z,19.00
2022-11-20T11:27:32.896Z,20.20
2022-11-20T11:30:05.339Z,18.00
2022-11-20T11:32:34.905Z,20.60
2022-11-20T11:35:03.597Z,12.00
2022-11-20T11:37:39.589Z,18.20
2022-11-20T11:40:23.822Z,18.60
2022-11-20T11:42:56.371Z,18.00
2022-11-20T11:45:23.713Z,19.00
2022-11-20T11:47:54.799Z,18.00
2022-11-20T11:50:24.120Z,15.60
2022-11-20T11:53:06.753Z,18.20
2022-11-20T11:55:37.898Z,18.60
2022-11-20T11:58:14.209Z,21.20
2022-11-20T12:00:43.877Z,20.60
2022-11-20T12:03:18.234Z,19.60
2022-11-20T12:05:48.237Z,15.80
2022-11-20T12:08:19.805Z,20.00
2022-11-20T12:10:51.317Z,20.40
2022-11-20T12:13:37.535Z,20.20
2022-11-20T12:16:06.392Z,12.00
2022-11-20T12:18:35.986Z,16.00
2022-11-20T12:21:10.998Z,19.20
2022-11-20T12:23:51.133Z,20.80
2022-11-20T12:26:25.290Z,15.20
2022-11-20T12:29:01.221Z,18.40
2022-11-20T12:31:41.454Z,17.60
2022-11-20T12:34:21.900Z,20.20
2022-11-20T12:36:55.133Z,18.60
2022-11-20T12:39:36.357Z,17.60
2022-11-20T12:42:32.068Z,14.20
2022-11-20T12:45:15.514Z,22.20
2022-11-20T12:48:01.097Z,21.40
2022-11-20T12:50:42.879Z,19.00
2022-11-20T12:53:28.345Z,28.60
2022-11-20T12:56:02.044Z,26.80
2022-11-20T12:58:34.458Z,22.60
2022-11-20T13:01:31.608Z,29.60
2022-11-20T13:04:07.805Z,23.60
2022-11-20T13:06:42.662Z,24.00
2022-11-20T13:09:14.184Z,18.20
2022-11-20T13:11:45.850Z,20.20
2022-11-20T13:14:19.113Z,23.60
2022-11-20T13:16:50.756Z,18.60
2022-11-20T13:19:20.671Z,24.00
2022-11-20T13:21:51.584Z,18.00
2022-11-20T13:24:26.049Z,20.20
2022-11-20T13:27:04.528Z,23.60
2022-11-20T13:29:33.226Z,16.00
2022-11-20T13:32:08.188Z,15.40
2022-11-20T13:34:37.032Z,19.40
2022-11-20T13:37:06.792Z,19.40
2022-11-20T13:39:36.290Z,20.60
2022-11-20T13:42:05.268Z,21.20
2022-11-20T13:44:38.898Z,15.00
2022-11-20T13:47:22.263Z,22.60
2022-11-20T13:49:50.872Z,21.00
2022-11-20T13:52:36.864Z,21.00
2022-11-20T13:55:10.709Z,18.40
2022-11-20T13:57:49.523Z,18.40
2022-11-20T14:00:19.157Z,20.60
2022-11-20T14:02:51.970Z,19.00
2022-11-20T14:05:22.973Z,22.00
2022-11-20T14:07:53.700Z,14.80
2022-11-20T14:10:25.915Z,21.00
2022-11-20T14:12:58.732Z,21.60
2022-11-20T14:15:30.280Z,19.00
2022-11-20T14:17:58.794Z,18.80
2022-11-20T14:20:29.026Z,16.80
2022-11-20T14:22:58.676Z,24.20
2022-11-20T14:25:28.332Z,22.80
2022-11-20T14:27:57.661Z,16.80
2022-11-20T14:30:26.883Z,15.40
2022-11-20T14:32:56.704Z,27.80
2022-11-20T14:35:27.097Z,21.20
2022-11-20T14:37:55.564Z,10.00
2022-11-20T14:40:29.758Z,19.00
2022-11-20T14:42:58.750Z,24.40
2022-11-20T14:45:27.354Z,24.80
2022-11-20T14:47:57.446Z,25.00
2022-11-20T14:50:27.015Z,22.40
2022-11-20T14:52:56.346Z,23.60
2022-11-20T14:55:30.100Z,21.00
2022-11-20T14:57:58.979Z,24.00
2022-11-20T15:00:27.472Z,22.40
2022-11-20T15:02:55.938Z,22.60
2022-11-20T15:05:25.626Z,21.20
2022-11-20T15:08:06.097Z,22.00
2022-11-20T15:10:35.863Z,20.60
2022-11-20T15:13:09.879Z,24.00
2022-11-20T15:15:44.983Z,24.60
2022-11-20T15:18:15.039Z,15.80
2022-11-20T15:20:43.610Z,21.00
2022-11-20T15:23:15.850Z,24.00
2022-11-20T15:25:45.459Z,23.60
2022-11-20T15:28:18.301Z,23.80
2022-11-20T15:30:46.509Z,20.80
2022-11-20T15:33:15.170Z,23.60
2022-11-20T15:35:43.333Z,21.20
2022-11-20T15:38:11.556Z,21.00
2022-11-20T15:40:39.704Z,10.80
2022-11-20T15:43:13.449Z,20.60
2022-11-20T15:45:43.721Z,21.00
2022-11-20T15:48:13.700Z,26.20
2022-11-20T15:50:46.223Z,23.20
2022-11-20T15:53:21.411Z,15.00
2022-11-20T15:55:49.684Z,20.20
2022-11-20T15:58:19.283Z,18.00
2022-11-20T16:00:47.812Z,21.80
2022-11-20T16:03:16.773Z,21.00
2022-11-20T16:05:45.130Z,22.60
2022-11-20T16:08:13.427Z,24.00
2022-11-20T16:10:42.014Z,18.80
2022-11-20T16:13:31.476Z,20.20
2022-11-20T16:16:02.296Z,21.40
2022-11-20T16:18:30.394Z,18.40
2022-11-20T16:20:58.559Z,19.80
2022-11-20T16:23:26.990Z,23.60
2022-11-20T16:25:55.218Z,22.80
2022-11-20T16:28:23.624Z,24.40
2022-11-20T16:30:51.946Z,22.80
2022-11-20T16:33:21.675Z,27.00
2022-11-20T16:35:49.824Z,26.60
2022-11-20T16:38:18.018Z,21.80
2022-11-20T16:40:46.195Z,22.20
2022-11-20T16:43:16.108Z,18.40
2022-11-20T16:45:45.198Z,24.80
2022-11-20T16:48:18.379Z,24.20
2022-11-20T16:50:50.362Z,27.00
2022-11-20T16:53:18.839Z,28.00
2022-11-20T16:55:47.854Z,24.00
2022-11-20T16:58:16.245Z,33.00
2022-11-20T17:00:51.603Z,16.80
2022-11-20T17:03:21.145Z,28.20
2022-11-20T17:05:51.076Z,26.80
2022-11-20T17:08:19.398Z,27.20
2022-11-20T17:10:47.894Z,27.80
2022-11-20T17:13:17.344Z,27.60
2022-11-20T17:15:45.582Z,28.00
2022-11-20T17:18:13.845Z,24.80
2022-11-20T17:20:42.225Z,30.00
2022-11-20T17:23:11.943Z,31.40
2022-11-20T17:25:40.339Z,26.40
2022-11-20T17:28:08.679Z,29.80
2022-11-20T17:30:36.865Z,33.00
2022-11-20T17:33:05.063Z,28.80
2022-11-20T17:35:33.259Z,29.60
2022-11-20T17:38:01.590Z,33.00
2022-11-20T17:40:32.047Z,30.00
2022-11-20T17:43:00.416Z,26.20
2022-11-20T17:45:28.596Z,26.60
2022-11-20T17:47:56.851Z,30.60
2022-11-20T17:50:25.153Z,30.80
2022-11-20T17:52:53.345Z,33.00
2022-11-20T17:55:21.509Z,26.60
2022-11-20T17:57:52.811Z,30.20
2022-11-20T18:00:21.180Z,24.80
2022-11-20T18:02:49.379Z,23.20
2022-11-20T18:05:17.693Z,20.40
2022-11-20T18:07:46.001Z,18.00
2022-11-20T18:10:14.557Z,26.20
2022-11-20T18:12:42.910Z,30.60
2022-11-20T18:15:12.625Z,24.00
2022-11-20T18:17:41.040Z,21.00
2022-11-20T18:22:59.030Z,16.60
2022-11-20T18:25:27.215Z,24.80
2022-11-20T18:27:56.552Z,20.60
2022-11-20T18:30:26.301Z,16.40
2022-11-20T18:32:55.607Z,15.00
2022-11-20T18:35:24.131Z,21.80
2022-11-20T18:37:52.364Z,21.40
2022-11-20T18:40:20.564Z,28.00
2022-11-20T18:43:05.964Z,25.00
2022-11-20T18:45:35.831Z,27.00
2022-11-20T18:48:04.299Z,30.00
2022-11-20T18:50:32.587Z,24.40
2022-11-20T18:53:00.822Z,24.40
2022-11-20T18:55:29.074Z,27.80
2022-11-20T18:57:57.473Z,22.00
2022-11-20T19:00:25.691Z,28.40
2022-11-20T19:02:55.847Z,27.60
2022-11-20T19:05:24.981Z,29.20
2022-11-20T19:07:53.679Z,27.80
2022-11-20T19:10:24.398Z,27.00
2022-11-20T19:12:52.724Z,27.00
2022-11-20T19:15:20.979Z,28.80
2022-11-20T19:17:49.264Z,31.40
2022-11-20T19:20:19.206Z,28.80
2022-11-20T19:22:51.077Z,24.20
2022-11-20T19:25:19.354Z,24.60
2022-11-20T19:27:47.580Z,31.40
2022-11-20T19:30:16.150Z,26.40
2022-11-20T19:32:44.478Z,28.80
2022-11-20T19:35:13.452Z,31.40
2022-11-20T19:37:43.142Z,26.20
2022-11-20T19:40:11.558Z,27.40
2022-11-20T19:42:40.729Z,28.00
2022-11-20T19:45:09.757Z,21.60
2022-11-20T19:48:07.354Z,30.00
2022-11-20T19:50:26.851Z,24.60
2022-11-20T19:52:58.967Z,25.00
2022-11-20T19:55:27.542Z,12.00
2022-11-20T19:57:55.939Z,22.80
2022-11-20T20:00:29.436Z,16.80
2022-11-20T20:03:00.832Z,19.00
2022-11-20T20:05:29.158Z,18.00
2022-11-20T20:07:58.892Z,17.60
2022-11-20T20:10:27.026Z,17.00
2022-11-20T20:12:55.185Z,24.60
2022-11-20T20:15:23.350Z,25.40
2022-11-20T20:17:52.977Z,21.40
2022-11-20T20:20:21.111Z,23.60
2022-11-20T20:22:49.272Z,18.40
2022-11-20T20:25:19.034Z,26.20
2022-11-20T20:27:47.298Z,27.40
2022-11-20T20:30:15.514Z,21.40
2022-11-20T20:32:43.709Z,16.00
2022-11-20T20:35:11.878Z,19.00
2022-11-20T20:37:40.047Z,22.40
2022-11-20T20:40:12.258Z,24.40
2022-11-20T20:42:44.641Z,19.60
2022-11-20T20:45:12.880Z,21.00
2022-11-20T20:47:42.633Z,16.00
2022-11-20T20:50:12.135Z,18.20
2022-11-20T20:52:40.415Z,23.20
2022-11-20T20:55:08.879Z,21.20
2022-11-20T20:57:37.476Z,17.40
2022-11-20T21:00:08.891Z,21.80
2022-11-20T21:02:37.233Z,23.40
2022-11-20T21:05:05.702Z,19.80
2022-11-20T21:07:33.926Z,21.00
2022-11-20T21:10:02.137Z,24.00
2022-11-20T21:12:31.558Z,16.60
2022-11-20T21:14:59.700Z,19.40
2022-11-20T21:17:31.415Z,24.80
2022-11-20T21:19:59.735Z,24.00
2022-11-20T21:22:31.487Z,20.60
2022-11-20T21:25:03.495Z,21.20
2022-11-20T21:27:31.923Z,16.60
2022-11-20T21:30:00.048Z,17.80
2022-11-20T21:32:29.660Z,21.00
2022-11-20T21:34:57.853Z,21.60
2022-11-20T21:37:26.092Z,13.80
2022-11-20T21:39:55.431Z,21.40
2022-11-20T21:42:23.554Z,21.40
2022-11-20T21:44:51.701Z,19.40
2022-11-20T21:47:19.884Z,19.00
2022-11-20T21:49:49.361Z,12.40
2022-11-20T21:52:17.399Z,21.00
2022-11-20T21:54:45.441Z,15.60
2022-11-20T21:57:13.605Z,17.60
2022-11-20T21:59:41.663Z,19.80
2022-11-20T22:02:12.079Z,16.20
2022-11-20T22:04:40.182Z,18.60
2022-11-20T22:07:09.788Z,15.80
2022-11-20T22:09:37.820Z,17.20
2022-11-20T22:12:06.285Z,17.20
2022-11-20T22:14:33.431Z,18.20
2022-11-20T22:17:01.474Z,22.80
2022-11-20T22:19:29.613Z,16.80
2022-11-20T22:21:57.668Z,15.80
2022-11-20T22:24:27.342Z,17.20
2022-11-20T22:26:55.935Z,17.60
2022-11-20T22:29:24.023Z,13.20
2022-11-20T22:31:53.014Z,14.20
2022-11-20T22:34:21.495Z,16.00
2022-11-20T22:36:49.767Z,15.00
2022-11-20T22:39:18.798Z,16.40
2022-11-20T22:41:48.352Z,13.80
2022-11-20T22:44:17.112Z,12.40
2022-11-20T22:46:45.368Z,16.20
2022-11-20T22:49:13.577Z,16.00
2022-11-20T22:51:42.622Z,12.80
2022-11-20T22:54:12.666Z,13.40
2022-11-20T22:56:40.756Z,14.20
2022-11-20T22:59:11.283Z,8.60
2022-11-20T23:01:39.686Z,15.80
2022-11-20T23:04:09.003Z,15.00
2022-11-20T23:06:37.163Z,12.80
2022-11-20T23:09:05.628Z,9.00
2022-11-20T23:11:33.883Z,10.00
2022-11-20T23:14:03.272Z,12.20
2022-11-20T23:16:33.249Z,10.40
2022-11-20T23:19:01.970Z,14.60
2022-11-20T23:21:30.061Z,12.00
2022-11-20T23:23:58.952Z,12.20
2022-11-20T23:26:28.542Z,15.00
2022-11-20T23:28:57.844Z,15.60
2022-11-20T23:31:26.879Z,13.00
2022-11-20T23:33:56.338Z,9.20
2022-11-20T23:36:24.347Z,12.00
2022-11-20T23:38:52.430Z,12.20
2022-11-20T23:41:20.475Z,12.60
2022-11-20T23:43:48.522Z,10.00
2022-11-20T23:46:17.075Z,12.20
2022-11-20T23:48:46.055Z,9.20
2022-11-20T23:51:16.018Z,12.00
2022-11-20T23:53:44.209Z,16.00
2022-11-20T23:56:14.449Z,11.20
2022-11-20T23:58:42.826Z,9.20
